sensor_id;sensor_type;location;lat;lon;timestamp;P1;durP1;ratioP1;P2;durP2;ratioP2
56760;SDS011;42633;44.494;11.356;2023-02-28T00:02:47;15.55;;;7.82;;
56760;SDS011;42633;44.494;11.356;2023-02-28T00:06:05;16.65;;;8.23;;
56760;SDS011;42633;44.494;11.356;2023-02-28T00:09:24;15.23;;;7.72;;
56760;SDS011;42633;44.494;11.356;2023-02-28T00:12:37;14.00;;;8.02;;
56760;SDS011;42633;44.494;11.356;2023-02-28T00:15:42;14.40;;;7.68;;
56760;SDS011;42633;44.494;11.356;2023-02-28T00:18:54;17.88;;;8.48;;
56760;SDS011;42633;44.494;11.356;2023-02-28T00:21:59;17.23;;;8.73;;
56760;SDS011;42633;44.494;11.356;2023-02-28T00:25:04;22.55;;;11.02;;
56760;SDS011;42633;44.494;11.356;2023-02-28T00:28:13;25.85;;;10.52;;
56760;SDS011;42633;44.494;11.356;2023-02-28T00:31:21;21.90;;;10.88;;
56760;SDS011;42633;44.494;11.356;2023-02-28T00:34:26;20.20;;;10.82;;
56760;SDS011;42633;44.494;11.356;2023-02-28T00:37:33;18.48;;;9.88;;
56760;SDS011;42633;44.494;11.356;2023-02-28T00:40:37;15.52;;;10.57;;
56760;SDS011;42633;44.494;11.356;2023-02-28T00:43:57;17.30;;;9.40;;
56760;SDS011;42633;44.494;11.356;2023-02-28T00:47:04;21.63;;;10.25;;
56760;SDS011;42633;44.494;11.356;2023-02-28T00:50:09;23.25;;;9.65;;
56760;SDS011;42633;44.494;11.356;2023-02-28T00:53:19;18.55;;;8.93;;
56760;SDS011;42633;44.494;11.356;2023-02-28T00:56:25;16.13;;;8.32;;
56760;SDS011;42633;44.494;11.356;2023-02-28T00:59:33;17.67;;;8.68;;
56760;SDS011;42633;44.494;11.356;2023-02-28T01:02:38;16.60;;;9.23;;
56760;SDS011;42633;44.494;11.356;2023-02-28T01:05:48;15.10;;;9.15;;
56760;SDS011;42633;44.494;11.356;2023-02-28T01:08:56;17.80;;;9.35;;
56760;SDS011;42633;44.494;11.356;2023-02-28T01:12:00;17.30;;;9.77;;
56760;SDS011;42633;44.494;11.356;2023-02-28T01:15:10;29.20;;;11.18;;
56760;SDS011;42633;44.494;11.356;2023-02-28T01:18:20;18.45;;;10.50;;
56760;SDS011;42633;44.494;11.356;2023-02-28T01:21:31;19.95;;;10.35;;
56760;SDS011;42633;44.494;11.356;2023-02-28T01:28:11;17.30;;;9.30;;
56760;SDS011;42633;44.494;11.356;2023-02-28T01:31:20;18.02;;;9.27;;
56760;SDS011;42633;44.494;11.356;2023-02-28T01:34:27;18.80;;;9.30;;
56760;SDS011;42633;44.494;11.356;2023-02-28T01:37:41;17.02;;;9.38;;
56760;SDS011;42633;44.494;11.356;2023-02-28T01:40:47;14.35;;;9.02;;
56760;SDS011;42633;44.494;11.356;2023-02-28T01:43:54;19.63;;;9.43;;
56760;SDS011;42633;44.494;11.356;2023-02-28T01:47:06;16.08;;;9.70;;
56760;SDS011;42633;44.494;11.356;2023-02-28T01:50:15;13.43;;;9.15;;
56760;SDS011;42633;44.494;11.356;2023-02-28T01:53:34;13.90;;;8.90;;
56760;SDS011;42633;44.494;11.356;2023-02-28T01:56:47;17.08;;;9.13;;
56760;SDS011;42633;44.494;11.356;2023-02-28T02:00:00;16.85;;;10.18;;
56760;SDS011;42633;44.494;11.356;2023-02-28T02:03:16;20.48;;;10.50;;
56760;SDS011;42633;44.494;11.356;2023-02-28T02:06:25;16.95;;;10.30;;
56760;SDS011;42633;44.494;11.356;2023-02-28T02:09:33;16.90;;;9.50;;
56760;SDS011;42633;44.494;11.356;2023-02-28T02:19:58;16.63;;;9.75;;
56760;SDS011;42633;44.494;11.356;2023-02-28T02:30:39;17.52;;;9.45;;
56760;SDS011;42633;44.494;11.356;2023-02-28T02:37:48;16.20;;;8.98;;
56760;SDS011;42633;44.494;11.356;2023-02-28T02:44:31;13.88;;;9.13;;
56760;SDS011;42633;44.494;11.356;2023-02-28T02:48:38;16.02;;;9.18;;
56760;SDS011;42633;44.494;11.356;2023-02-28T02:51:52;15.98;;;9.45;;
56760;SDS011;42633;44.494;11.356;2023-02-28T02:58:45;15.07;;;9.85;;
56760;SDS011;42633;44.494;11.356;2023-02-28T03:05:56;18.92;;;9.65;;
56760;SDS011;42633;44.494;11.356;2023-02-28T03:23:45;12.82;;;9.52;;
56760;SDS011;42633;44.494;11.356;2023-02-28T03:27:09;15.02;;;9.15;;
56760;SDS011;42633;44.494;11.356;2023-02-28T03:30:24;21.90;;;11.05;;
56760;SDS011;42633;44.494;11.356;2023-02-28T03:33:34;16.92;;;9.75;;
56760;SDS011;42633;44.494;11.356;2023-02-28T03:36:47;18.65;;;10.15;;
56760;SDS011;42633;44.494;11.356;2023-02-28T03:40:17;16.55;;;9.20;;
56760;SDS011;42633;44.494;11.356;2023-02-28T03:43:26;14.23;;;9.88;;
56760;SDS011;42633;44.494;11.356;2023-02-28T03:47:06;13.25;;;9.88;;
56760;SDS011;42633;44.494;11.356;2023-02-28T03:50:42;18.98;;;10.32;;
56760;SDS011;42633;44.494;11.356;2023-02-28T03:53:53;15.35;;;9.52;;
56760;SDS011;42633;44.494;11.356;2023-02-28T04:00:38;18.98;;;9.50;;
56760;SDS011;42633;44.494;11.356;2023-02-28T04:03:58;13.23;;;8.85;;
56760;SDS011;42633;44.494;11.356;2023-02-28T04:07:20;15.43;;;9.30;;
56760;SDS011;42633;44.494;11.356;2023-02-28T04:10:30;19.50;;;10.15;;
56760;SDS011;42633;44.494;11.356;2023-02-28T04:13:39;14.93;;;9.27;;
56760;SDS011;42633;44.494;11.356;2023-02-28T04:16:51;17.95;;;10.27;;
56760;SDS011;42633;44.494;11.356;2023-02-28T04:20:01;18.83;;;9.70;;
56760;SDS011;42633;44.494;11.356;2023-02-28T04:23:12;17.92;;;10.18;;
56760;SDS011;42633;44.494;11.356;2023-02-28T04:26:19;15.35;;;10.32;;
56760;SDS011;42633;44.494;11.356;2023-02-28T04:29:25;14.15;;;9.80;;
56760;SDS011;42633;44.494;11.356;2023-02-28T04:32:39;15.50;;;9.57;;
56760;SDS011;42633;44.494;11.356;2023-02-28T04:36:01;17.30;;;9.98;;
56760;SDS011;42633;44.494;11.356;2023-02-28T04:39:14;17.05;;;10.38;;
56760;SDS011;42633;44.494;11.356;2023-02-28T04:42:21;13.77;;;9.50;;
56760;SDS011;42633;44.494;11.356;2023-02-28T04:45:30;20.02;;;9.32;;
56760;SDS011;42633;44.494;11.356;2023-02-28T04:48:44;13.65;;;9.48;;
56760;SDS011;42633;44.494;11.356;2023-02-28T04:51:55;16.30;;;9.65;;
56760;SDS011;42633;44.494;11.356;2023-02-28T04:55:05;14.73;;;9.32;;
56760;SDS011;42633;44.494;11.356;2023-02-28T04:58:15;16.40;;;9.18;;
56760;SDS011;42633;44.494;11.356;2023-02-28T05:01:25;13.77;;;9.50;;
56760;SDS011;42633;44.494;11.356;2023-02-28T05:04:41;16.90;;;9.90;;
56760;SDS011;42633;44.494;11.356;2023-02-28T05:07:49;16.60;;;9.82;;
56760;SDS011;42633;44.494;11.356;2023-02-28T05:10:54;18.30;;;9.77;;
56760;SDS011;42633;44.494;11.356;2023-02-28T05:13:59;16.05;;;11.02;;
56760;SDS011;42633;44.494;11.356;2023-02-28T05:17:11;16.95;;;9.90;;
56760;SDS011;42633;44.494;11.356;2023-02-28T05:20:15;15.63;;;9.93;;
56760;SDS011;42633;44.494;11.356;2023-02-28T05:23:20;19.23;;;9.95;;
56760;SDS011;42633;44.494;11.356;2023-02-28T05:26:29;17.50;;;10.60;;
56760;SDS011;42633;44.494;11.356;2023-02-28T05:29:37;19.00;;;10.02;;
56760;SDS011;42633;44.494;11.356;2023-02-28T05:32:49;15.48;;;9.80;;
56760;SDS011;42633;44.494;11.356;2023-02-28T05:39:07;18.55;;;10.07;;
56760;SDS011;42633;44.494;11.356;2023-02-28T05:45:22;14.32;;;10.07;;
56760;SDS011;42633;44.494;11.356;2023-02-28T05:48:26;21.52;;;10.88;;
56760;SDS011;42633;44.494;11.356;2023-02-28T05:51:30;14.32;;;10.63;;
56760;SDS011;42633;44.494;11.356;2023-02-28T05:54:37;16.42;;;9.35;;
56760;SDS011;42633;44.494;11.356;2023-02-28T05:57:43;14.43;;;10.27;;
56760;SDS011;42633;44.494;11.356;2023-02-28T06:00:49;18.10;;;11.02;;
56760;SDS011;42633;44.494;11.356;2023-02-28T06:03:53;18.73;;;10.75;;
56760;SDS011;42633;44.494;11.356;2023-02-28T06:07:00;15.95;;;10.43;;
56760;SDS011;42633;44.494;11.356;2023-02-28T06:10:05;19.70;;;11.57;;
56760;SDS011;42633;44.494;11.356;2023-02-28T06:13:10;29.13;;;12.40;;
56760;SDS011;42633;44.494;11.356;2023-02-28T06:16:18;17.40;;;10.65;;
56760;SDS011;42633;44.494;11.356;2023-02-28T06:19:23;19.67;;;11.93;;
56760;SDS011;42633;44.494;11.356;2023-02-28T06:22:32;15.37;;;11.23;;
56760;SDS011;42633;44.494;11.356;2023-02-28T06:25:45;17.98;;;11.50;;
56760;SDS011;42633;44.494;11.356;2023-02-28T06:28:51;19.38;;;10.88;;
56760;SDS011;42633;44.494;11.356;2023-02-28T06:31:57;14.85;;;10.27;;
56760;SDS011;42633;44.494;11.356;2023-02-28T06:35:06;21.45;;;12.10;;
56760;SDS011;42633;44.494;11.356;2023-02-28T06:38:22;15.52;;;11.23;;
56760;SDS011;42633;44.494;11.356;2023-02-28T06:41:45;18.38;;;11.63;;
56760;SDS011;42633;44.494;11.356;2023-02-28T06:45:00;17.98;;;13.18;;
56760;SDS011;42633;44.494;11.356;2023-02-28T06:48:28;24.60;;;13.38;;
56760;SDS011;42633;44.494;11.356;2023-02-28T06:55:22;18.60;;;12.30;;
56760;SDS011;42633;44.494;11.356;2023-02-28T07:04:33;21.15;;;12.60;;
56760;SDS011;42633;44.494;11.356;2023-02-28T07:13:21;16.95;;;11.32;;
56760;SDS011;42633;44.494;11.356;2023-02-28T07:17:08;17.05;;;11.95;;
56760;SDS011;42633;44.494;11.356;2023-02-28T07:24:03;22.35;;;13.95;;
56760;SDS011;42633;44.494;11.356;2023-02-28T07:27:08;19.75;;;12.30;;
56760;SDS011;42633;44.494;11.356;2023-02-28T07:30:20;21.15;;;12.48;;
56760;SDS011;42633;44.494;11.356;2023-02-28T07:33:25;21.52;;;12.48;;
56760;SDS011;42633;44.494;11.356;2023-02-28T07:36:46;26.23;;;13.00;;
56760;SDS011;42633;44.494;11.356;2023-02-28T07:40:13;21.40;;;12.95;;
56760;SDS011;42633;44.494;11.356;2023-02-28T07:44:26;23.73;;;13.93;;
56760;SDS011;42633;44.494;11.356;2023-02-28T07:47:42;19.58;;;12.70;;
56760;SDS011;42633;44.494;11.356;2023-02-28T07:51:02;25.30;;;12.80;;
56760;SDS011;42633;44.494;11.356;2023-02-28T07:55:14;26.40;;;14.45;;
56760;SDS011;42633;44.494;11.356;2023-02-28T08:08:34;22.33;;;13.45;;
56760;SDS011;42633;44.494;11.356;2023-02-28T08:51:52;25.95;;;15.05;;
56760;SDS011;42633;44.494;11.356;2023-02-28T08:55:35;22.15;;;14.27;;
56760;SDS011;42633;44.494;11.356;2023-02-28T09:19:54;23.73;;;14.40;;
56760;SDS011;42633;44.494;11.356;2023-02-28T09:34:22;25.03;;;15.23;;
56760;SDS011;42633;44.494;11.356;2023-02-28T10:22:36;25.67;;;15.50;;
56760;SDS011;42633;44.494;11.356;2023-02-28T10:26:13;27.33;;;15.13;;
56760;SDS011;42633;44.494;11.356;2023-02-28T10:33:34;28.80;;;14.88;;
56760;SDS011;42633;44.494;11.356;2023-02-28T10:38:02;27.45;;;14.82;;
56760;SDS011;42633;44.494;11.356;2023-02-28T10:42:01;26.55;;;14.10;;
56760;SDS011;42633;44.494;11.356;2023-02-28T10:45:23;24.00;;;15.25;;
56760;SDS011;42633;44.494;11.356;2023-02-28T10:49:35;26.80;;;14.45;;
56760;SDS011;42633;44.494;11.356;2023-02-28T10:52:45;27.42;;;15.57;;
56760;SDS011;42633;44.494;11.356;2023-02-28T11:00:06;22.65;;;14.70;;
56760;SDS011;42633;44.494;11.356;2023-02-28T11:20:26;34.13;;;15.30;;
56760;SDS011;42633;44.494;11.356;2023-02-28T11:23:54;29.83;;;17.35;;
56760;SDS011;42633;44.494;11.356;2023-02-28T11:36:15;28.27;;;16.17;;
56760;SDS011;42633;44.494;11.356;2023-02-28T11:39:34;24.48;;;15.18;;
56760;SDS011;42633;44.494;11.356;2023-02-28T11:46:48;25.95;;;15.35;;
56760;SDS011;42633;44.494;11.356;2023-02-28T12:02:25;25.02;;;15.90;;
56760;SDS011;42633;44.494;11.356;2023-02-28T12:27:13;27.15;;;17.25;;
56760;SDS011;42633;44.494;11.356;2023-02-28T12:31:03;33.72;;;16.58;;
56760;SDS011;42633;44.494;11.356;2023-02-28T12:34:52;29.33;;;15.23;;
56760;SDS011;42633;44.494;11.356;2023-02-28T12:38:36;25.33;;;16.20;;
56760;SDS011;42633;44.494;11.356;2023-02-28T12:47:46;24.63;;;13.98;;
56760;SDS011;42633;44.494;11.356;2023-02-28T13:21:41;24.58;;;16.13;;
56760;SDS011;42633;44.494;11.356;2023-02-28T13:29:00;20.92;;;13.75;;
56760;SDS011;42633;44.494;11.356;2023-02-28T13:32:40;24.23;;;14.50;;
56760;SDS011;42633;44.494;11.356;2023-02-28T13:36:40;25.65;;;15.02;;
56760;SDS011;42633;44.494;11.356;2023-02-28T13:40:29;32.75;;;15.80;;
56760;SDS011;42633;44.494;11.356;2023-02-28T14:10:27;28.13;;;16.98;;
56760;SDS011;42633;44.494;11.356;2023-02-28T14:18:39;25.67;;;17.42;;
56760;SDS011;42633;44.494;11.356;2023-02-28T14:37:10;24.33;;;16.98;;
56760;SDS011;42633;44.494;11.356;2023-02-28T14:40:33;36.90;;;17.73;;
56760;SDS011;42633;44.494;11.356;2023-02-28T14:48:00;29.80;;;17.45;;
56760;SDS011;42633;44.494;11.356;2023-02-28T14:51:07;31.35;;;18.83;;
56760;SDS011;42633;44.494;11.356;2023-02-28T14:54:16;30.40;;;18.58;;
56760;SDS011;42633;44.494;11.356;2023-02-28T14:57:31;25.67;;;18.27;;
56760;SDS011;42633;44.494;11.356;2023-02-28T15:00:52;33.45;;;19.10;;
56760;SDS011;42633;44.494;11.356;2023-02-28T15:04:02;24.08;;;17.35;;
56760;SDS011;42633;44.494;11.356;2023-02-28T15:07:18;28.33;;;18.58;;
56760;SDS011;42633;44.494;11.356;2023-02-28T15:10:26;30.50;;;19.95;;
56760;SDS011;42633;44.494;11.356;2023-02-28T15:13:55;31.60;;;20.65;;
56760;SDS011;42633;44.494;11.356;2023-02-28T15:17:45;24.40;;;19.38;;
56760;SDS011;42633;44.494;11.356;2023-02-28T15:24:50;33.15;;;19.35;;
56760;SDS011;42633;44.494;11.356;2023-02-28T15:28:39;26.48;;;19.23;;
56760;SDS011;42633;44.494;11.356;2023-02-28T15:41:20;34.22;;;21.90;;
56760;SDS011;42633;44.494;11.356;2023-02-28T15:44:33;29.40;;;20.58;;
56760;SDS011;42633;44.494;11.356;2023-02-28T15:47:45;31.52;;;22.20;;
56760;SDS011;42633;44.494;11.356;2023-02-28T15:50:57;32.70;;;20.83;;
56760;SDS011;42633;44.494;11.356;2023-02-28T15:54:40;31.08;;;21.25;;
56760;SDS011;42633;44.494;11.356;2023-02-28T15:58:07;35.40;;;22.23;;
56760;SDS011;42633;44.494;11.356;2023-02-28T16:02:01;30.92;;;21.23;;
56760;SDS011;42633;44.494;11.356;2023-02-28T16:18:52;34.72;;;22.30;;
56760;SDS011;42633;44.494;11.356;2023-02-28T16:23:09;34.10;;;21.60;;
56760;SDS011;42633;44.494;11.356;2023-02-28T16:27:20;36.72;;;21.80;;
56760;SDS011;42633;44.494;11.356;2023-02-28T17:00:57;32.30;;;23.13;;
56760;SDS011;42633;44.494;11.356;2023-02-28T17:04:41;37.97;;;24.13;;
56760;SDS011;42633;44.494;11.356;2023-02-28T17:53:23;36.35;;;23.92;;
